Time;durP1;ratioP1;P1;durP2;ratioP2;P2;SDS_P1;SDS_P2;PMS_P1;PMS_P2;Temp;Humidity;BMP_temperature;BMP_pressure;BME280_temperature;BME280_humidity;BME280_pressure;Samples;Min_cycle;Max_cycle;Signal;HPM_P1;HPM_P2
2023/07/25 00:02:57;;;;;;;;;;;;;;;13.88;64.91602;100772.9;;;;-67
2023/07/25 00:07:58;;;;;;;;;;;;;;;13.86;64.82422;100775.8;;;;-69
2023/07/25 00:12:57;;;;;;;;;;;;;;;13.75;64.85254;100782;;;;-67
2023/07/25 00:17:45;;;;;;;0.2;0.1;;;;;;;;;;;;;-69
2023/07/25 00:17:57;;;;;;;;;;;;;;;13.74;64.74023;100786.4;;;;-70
2023/07/25 00:22:57;;;;;;;;;;;;;;;13.69;64.66504;100779.5;;;;-67
2023/07/25 00:27:57;;;;;;;;;;;;;;;13.61;64.7207;100781.3;;;;-67
2023/07/25 00:32:57;;;;;;;;;;;;;;;13.57;64.81543;100780;;;;-67
2023/07/25 00:37:57;;;;;;;;;;;;;;;13.47;64.94629;100774.4;;;;-69
2023/07/25 00:43:00;;;;;;;;;;;;;;;13.4;65.06836;100768.6;;;;-67
2023/07/25 00:47:49;;;;;;;0.2;0;;;;;;;;;;;;;-68
2023/07/25 00:47:59;;;;;;;;;;;;;;;13.39;65.11328;100773.5;;;;-67
2023/07/25 00:52:58;;;;;;;;;;;;;;;13.4;65.24805;100771.7;;;;-67
2023/07/25 00:57:59;;;;;;;;;;;;;;;13.33;65.26074;100767.8;;;;-67
2023/07/25 01:02:57;;;;;;;;;;;;;;;13.38;65.06641;100759.3;;;;-67
2023/07/25 01:07:58;;;;;;;;;;;;;;;13.4;65.0459;100753;;;;-71
2023/07/25 01:12:57;;;;;;;;;;;;;;;13.35;65.17383;100758.7;;;;-66
2023/07/25 01:17:49;;;;;;;0.2;0.1;;;;;;;;;;;;;-68
2023/07/25 01:17:59;;;;;;;;;;;;;;;13.33;65.39453;100757.6;;;;-67
2023/07/25 01:22:58;;;;;;;;;;;;;;;13.29;65.19922;100758;;;;-68
2023/07/25 01:27:57;;;;;;;;;;;;;;;13.3;65.2002;100756.5;;;;-69
2023/07/25 01:32:58;;;;;;;;;;;;;;;13.31;65.17969;100755.1;;;;-69
2023/07/25 01:37:57;;;;;;;;;;;;;;;13.29;65.41211;100759.4;;;;-67
2023/07/25 01:42:57;;;;;;;;;;;;;;;13.32;65.25879;100762.5;;;;-69
2023/07/25 01:47:51;;;;;;;0.2;0;;;;;;;;;;;;;-68
2023/07/25 01:48:01;;;;;;;;;;;;;;;13.32;65.20313;100764.4;;;;-68
2023/07/25 01:52:57;;;;;;;;;;;;;;;13.35;65.41992;100759;;;;-68
2023/07/25 01:57:57;;;;;;;;;;;;;;;13.32;65.60645;100758.9;;;;-68
2023/07/25 02:02:57;;;;;;;;;;;;;;;13.31;65.42578;100757;;;;-70
2023/07/25 02:07:59;;;;;;;;;;;;;;;13.26;65.54199;100752.8;;;;-67
2023/07/25 02:12:57;;;;;;;;;;;;;;;13.27;65.47559;100748.3;;;;-69
2023/07/25 02:17:55;;;;;;;0.2;0.1;;;;;;;;;;;;;-69
2023/07/25 02:18:05;;;;;;;;;;;;;;;13.32;65.37109;100748.4;;;;-68
2023/07/25 02:22:57;;;;;;;;;;;;;;;13.36;65.43359;100750.5;;;;-67
2023/07/25 02:27:59;;;;;;;;;;;;;;;13.35;65.4209;100747.3;;;;-68
2023/07/25 02:32:57;;;;;;;;;;;;;;;13.38;65.36816;100751.9;;;;-69
2023/07/25 02:37:59;;;;;;;;;;;;;;;13.4;65.25977;100751.8;;;;-69
2023/07/25 02:42:57;;;;;;;;;;;;;;;13.39;65.49414;100752.3;;;;-67
2023/07/25 02:47:54;;;;;;;0.2;0.1;;;;;;;;;;;;;-68
2023/07/25 02:48:07;;;;;;;;;;;;;;;13.39;65.5498;100756.3;;;;-69
2023/07/25 02:52:57;;;;;;;;;;;;;;;13.47;65.22656;100758.8;;;;-67
2023/07/25 02:57:57;;;;;;;;;;;;;;;13.48;65.56348;100757.6;;;;-67
2023/07/25 03:02:57;;;;;;;;;;;;;;;13.52;65.46777;100760.6;;;;-67
2023/07/25 03:07:57;;;;;;;;;;;;;;;13.58;65.57715;100758.3;;;;-68
2023/07/25 03:12:57;;;;;;;;;;;;;;;13.63;65.63086;100761.2;;;;-67
2023/07/25 03:17:57;;;;;;;0.2;0;;;;;;;;;;;;;-68
2023/07/25 03:18:07;;;;;;;;;;;;;;;13.68;65.69434;100764.4;;;;-69
2023/07/25 03:22:57;;;;;;;;;;;;;;;13.73;65.57715;100766.5;;;;-69
2023/07/25 03:28:00;;;;;;;;;;;;;;;13.76;65.58203;100771.3;;;;-68
2023/07/25 03:32:57;;;;;;;;;;;;;;;13.81;65.52246;100773.8;;;;-69
2023/07/25 03:37:57;;;;;;;;;;;;;;;13.85;65.52832;100777.2;;;;-70
2023/07/25 03:42:57;;;;;;;;;;;;;;;13.87;65.42969;100778.4;;;;-68
2023/07/25 03:47:57;;;;;;;;;;;;;;;13.87;65.42969;100774.7;;;;-69
2023/07/25 03:48:09;;;;;;;0.2;0;;;;;;;;;;;;;-69
2023/07/25 03:52:57;;;;;;;;;;;;;;;13.92;65.42676;100776.6;;;;-68
2023/07/25 03:57:57;;;;;;;;;;;;;;;13.95;65.50977;100773.1;;;;-69
2023/07/25 04:02:57;;;;;;;;;;;;;;;13.94;65.43066;100767.5;;;;-68
2023/07/25 04:07:57;;;;;;;;;;;;;;;13.92;65.50488;100770;;;;-68
2023/07/25 04:12:58;;;;;;;;;;;;;;;13.91;65.48145;100765.6;;;;-66
2023/07/25 04:17:57;;;;;;;;;;;;;;;13.91;65.42578;100766.1;;;;-68
2023/07/25 04:18:07;;;;;;;0.2;0;;;;;;;;;;;;;-68
2023/07/25 04:22:59;;;;;;;;;;;;;;;13.89;65.56738;100768.2;;;;-70
2023/07/25 04:27:57;;;;;;;;;;;;;;;13.9;65.45605;100767.8;;;;-66
2023/07/25 04:32:59;;;;;;;;;;;;;;;13.87;65.53027;100766;;;;-69
2023/07/25 04:37:57;;;;;;;;;;;;;;;13.87;65.51953;100768.9;;;;-68
2023/07/25 04:42:57;;;;;;;;;;;;;;;13.84;65.5166;100775.6;;;;-69
2023/07/25 04:47:57;;;;;;;;;;;;;;;13.83;65.53613;100783.3;;;;-69
2023/07/25 04:48:09;;;;;;;0.2;0.1;;;;;;;;;;;;;-69
2023/07/25 04:52:57;;;;;;;;;;;;;;;13.79;65.49707;100784.3;;;;-69
2023/07/25 04:58:03;;;;;;;;;;;;;;;13.83;65.49121;100788.7;;;;-68
2023/07/25 05:02:57;;;;;;;;;;;;;;;13.83;65.54883;100791.3;;;;-68
2023/07/25 05:07:57;;;;;;;;;;;;;;;13.86;65.42871;100787;;;;-67
2023/07/25 05:12:57;;;;;;;;;;;;;;;13.89;65.37695;100791.8;;;;-68
2023/07/25 05:17:57;;;;;;;;;;;;;;;13.93;65.34863;100795.8;;;;-68
2023/07/25 05:18:07;;;;;;;0.2;0;;;;;;;;;;;;;-68
2023/07/25 05:22:57;;;;;;;;;;;;;;;13.99;65.49316;100794.2;;;;-70
2023/07/25 05:27:57;;;;;;;;;;;;;;;13.99;65.3252;100798;;;;-67
2023/07/25 05:32:57;;;;;;;;;;;;;;;14.07;65.61816;100793.7;;;;-68
2023/07/25 05:37:57;;;;;;;;;;;;;;;14.24;66.1582;100799.6;;;;-69
2023/07/25 05:42:57;;;;;;;;;;;;;;;14.72;65.44531;100799.6;;;;-70
2023/07/25 05:47:57;;;;;;;;;;;;;;;15.48;63.97363;100794.1;;;;-69
2023/07/25 05:48:07;;;;;;;0.2;0.1;;;;;;;;;;;;;-69
2023/07/25 05:52:57;;;;;;;;;;;;;;;16.16;62.57227;100798.5;;;;-69
2023/07/25 05:57:57;;;;;;;;;;;;;;;16.77;61.21484;100798.8;;;;-67
2023/07/25 06:02:57;;;;;;;;;;;;;;;17.12;59.96289;100803.3;;;;-69
2023/07/25 06:07:57;;;;;;;;;;;;;;;17.25;59.73438;100798.1;;;;-70
2023/07/25 06:12:57;;;;;;;;;;;;;;;17.49;59.42578;100806;;;;-70
2023/07/25 06:17:57;;;;;;;;;;;;;;;17.8;59.23047;100803.4;;;;-68
2023/07/25 06:18:08;;;;;;;0.2;0;;;;;;;;;;;;;-70
2023/07/25 06:22:57;;;;;;;;;;;;;;;18.4;57.99414;100796.8;;;;-67
2023/07/25 06:27:57;;;;;;;;;;;;;;;18.86;57.47461;100801.8;;;;-70
2023/07/25 06:32:57;;;;;;;;;;;;;;;19.27;56.57422;100801.6;;;;-68
2023/07/25 06:37:57;;;;;;;;;;;;;;;19.48;56.25977;100800.2;;;;-68
2023/07/25 06:42:57;;;;;;;;;;;;;;;19.82;55.67578;100798;;;;-68
2023/07/25 06:47:57;;;;;;;;;;;;;;;20.02;54.89355;100794.5;;;;-69
2023/07/25 06:48:11;;;;;;;0.2;0;;;;;;;;;;;;;-69
2023/07/25 06:52:57;;;;;;;;;;;;;;;20.37;53.9209;100800;;;;-67
2023/07/25 06:57:57;;;;;;;;;;;;;;;20.57;53.4209;100800.1;;;;-68
2023/07/25 07:02:57;;;;;;;;;;;;;;;20.88;52.36133;100804.8;;;;-70
2023/07/25 07:07:57;;;;;;;;;;;;;;;20.95;51.84277;100802.1;;;;-69
2023/07/25 07:12:57;;;;;;;;;;;;;;;21;52.00879;100806;;;;-69
2023/07/25 07:17:57;;;;;;;;;;;;;;;21.17;51.66309;100804.4;;;;-69
2023/07/25 07:18:13;;;;;;;0.2;0;;;;;;;;;;;;;-68
2023/07/25 07:22:57;;;;;;;;;;;;;;;21.4;50.67188;100805;;;;-68
2023/07/25 07:27:57;;;;;;;;;;;;;;;21.48;49.62793;100804.2;;;;-67
2023/07/25 07:32:58;;;;;;;;;;;;;;;21.8;49.08984;100805.6;;;;-68
2023/07/25 07:37:58;;;;;;;;;;;;;;;21.98;48.79004;100797.9;;;;-70
2023/07/25 07:42:57;;;;;;;;;;;;;;;22.29;48.3418;100805.1;;;;-68
2023/07/25 07:47:57;;;;;;;;;;;;;;;22.52;47.45801;100806.9;;;;-68
2023/07/25 07:48:17;;;;;;;0.2;0.1;;;;;;;;;;;;;-68
2023/07/25 07:52:57;;;;;;;;;;;;;;;22.59;47.08789;100806.9;;;;-68
2023/07/25 07:57:57;;;;;;;;;;;;;;;22.58;47.06348;100811.8;;;;-67
2023/07/25 08:02:57;;;;;;;;;;;;;;;22.73;46.84961;100819.2;;;;-68
2023/07/25 08:07:57;;;;;;;;;;;;;;;22.83;47.19336;100824.3;;;;-69
2023/07/25 08:12:57;;;;;;;;;;;;;;;22.82;46.87109;100826.5;;;;-69
2023/07/25 08:17:57;;;;;;;;;;;;;;;22.84;47.50488;100826.7;;;;-67
2023/07/25 08:18:20;;;;;;;0.2;0;;;;;;;;;;;;;-69
2023/07/25 08:22:57;;;;;;;;;;;;;;;22.99;47.24414;100822.5;;;;-69
2023/07/25 08:27:59;;;;;;;;;;;;;;;23.07;46.62109;100828.6;;;;-67
2023/07/25 08:32:57;;;;;;;;;;;;;;;23.25;46.11133;100832.3;;;;-69
2023/07/25 08:37:57;;;;;;;;;;;;;;;23.48;45.82324;100835.3;;;;-69
2023/07/25 08:42:59;;;;;;;;;;;;;;;23.52;46.01172;100844.5;;;;-69
2023/07/25 08:47:59;;;;;;;;;;;;;;;23.68;45.29102;100848.9;;;;-68
2023/07/25 08:48:24;;;;;;;0.2;0;;;;;;;;;;;;;-69
2023/07/25 08:52:59;;;;;;;;;;;;;;;23.81;45.31543;100851.6;;;;-70
2023/07/25 08:57:58;;;;;;;;;;;;;;;23.99;45.0918;100851.6;;;;-68
2023/07/25 09:03:00;;;;;;;;;;;;;;;24.49;44.4502;100851.5;;;;-72
2023/07/25 09:07:59;;;;;;;;;;;;;;;25.02;43.55371;100858.1;;;;-69
2023/07/25 09:12:57;;;;;;;;;;;;;;;24.8;43.12793;100867.7;;;;-68
2023/07/25 09:17:57;;;;;;;;;;;;;;;24.26;43.76855;100878.9;;;;-70
2023/07/25 09:18:28;;;;;;;0.2;0;;;;;;;;;;;;;-68
2023/07/25 09:22:57;;;;;;;;;;;;;;;24.17;44.83301;100866.9;;;;-69
2023/07/25 09:27:57;;;;;;;;;;;;;;;24.32;45.08984;100876.5;;;;-68
2023/07/25 09:32:57;;;;;;;;;;;;;;;23.89;44.77051;100884.1;;;;-69
2023/07/25 09:38:00;;;;;;;;;;;;;;;23.54;44.64355;100893.7;;;;-69
2023/07/25 09:42:57;;;;;;;;;;;;;;;23.27;45.30664;100901.7;;;;-68
2023/07/25 09:48:02;;;;;;;;;;;;;;;23.04;45.55957;100905.9;;;;-68
2023/07/25 09:48:32;;;;;;;0.2;0;;;;;;;;;;;;;-69
2023/07/25 09:52:57;;;;;;;;;;;;;;;23.34;45.91211;100903;;;;-70
2023/07/25 09:57:57;;;;;;;;;;;;;;;23.68;44.8418;100910.5;;;;-68
2023/07/25 10:02:57;;;;;;;;;;;;;;;23.47;44.50879;100921.9;;;;-70
2023/07/25 10:07:57;;;;;;;;;;;;;;;23.26;45.31738;100921.7;;;;-68
2023/07/25 10:12:57;;;;;;;;;;;;;;;23.07;45.33105;100939.2;;;;-68
2023/07/25 10:18:03;;;;;;;;;;;;;;;22.79;45.73047;100937.8;;;;-68
2023/07/25 10:18:37;;;;;;;0.2;0;;;;;;;;;;;;;-70
2023/07/25 10:22:57;;;;;;;;;;;;;;;22.63;46.12695;100939.5;;;;-72
2023/07/25 10:28:02;;;;;;;;;;;;;;;22.44;46.92285;100941.4;;;;-67
2023/07/25 10:32:57;;;;;;;;;;;;;;;22.26;47.55859;100947.5;;;;-68
2023/07/25 10:37:57;;;;;;;;;;;;;;;22.24;47.45215;100945.7;;;;-68
2023/07/25 10:43:01;;;;;;;;;;;;;;;22.24;48.00293;100941.3;;;;-66
2023/07/25 10:47:59;;;;;;;;;;;;;;;22.27;47.95996;100943.8;;;;-68
2023/07/25 10:48:47;;;;;;;0.2;0;;;;;;;;;;;;;-70
2023/07/25 10:52:57;;;;;;;;;;;;;;;22.4;47.53809;100948.1;;;;-68
2023/07/25 10:58:08;;;;;;;;;;;;;;;22.56;47.11914;100947;;;;-72
2023/07/25 11:02:57;;;;;;;;;;;;;;;22.66;46.75098;100947.3;;;;-71
2023/07/25 11:07:58;;;;;;;;;;;;;;;22.82;46.12402;100948.4;;;;-70
2023/07/25 11:12:58;;;;;;;;;;;;;;;22.9;45.5332;100952.7;;;;-74
2023/07/25 11:17:57;;;;;;;;;;;;;;;23.03;45.25977;100954.5;;;;-68
2023/07/25 11:18:52;;;;;;;0.2;0.1;;;;;;;;;;;;;-70
2023/07/25 11:22:57;;;;;;;;;;;;;;;23.15;45.01758;100954.1;;;;-68
2023/07/25 11:27:57;;;;;;;;;;;;;;;23.27;44.7998;100948;;;;-69
2023/07/25 11:32:57;;;;;;;;;;;;;;;23.28;44.68652;100961;;;;-69
2023/07/25 11:38:02;;;;;;;;;;;;;;;23.33;44.69238;100955.7;;;;-69
2023/07/25 11:42:57;;;;;;;;;;;;;;;23.47;44.83203;100950.6;;;;-71
2023/07/25 11:47:58;;;;;;;;;;;;;;;23.27;44.81152;100957.8;;;;-67
2023/07/25 11:48:48;;;;;;;0.2;0;;;;;;;;;;;;;-69
2023/07/25 11:52:57;;;;;;;;;;;;;;;23.27;45.68652;100957.6;;;;-67
2023/07/25 11:57:57;;;;;;;;;;;;;;;23.56;45.33594;100958.6;;;;-68
2023/07/25 12:02:58;;;;;;;;;;;;;;;23.82;45.18945;100966.2;;;;-68
2023/07/25 12:08:02;;;;;;;;;;;;;;;23.99;44.71191;100958.5;;;;-67
2023/07/25 12:12:57;;;;;;;;;;;;;;;24.26;44.77246;100959.9;;;;-68
2023/07/25 12:17:57;;;;;;;;;;;;;;;24.48;43.72168;100953.8;;;;-70
2023/07/25 12:18:55;;;;;;;0.2;0;;;;;;;;;;;;;-71
2023/07/25 12:23:07;;;;;;;;;;;;;;;24.36;43.79004;100968.6;;;;-66
2023/07/25 12:27:57;;;;;;;;;;;;;;;24.06;44.5791;100969.3;;;;-68
2023/07/25 12:32:57;;;;;;;;;;;;;;;23.89;44.43555;100972.1;;;;-68
2023/07/25 12:37:59;;;;;;;;;;;;;;;23.71;45.13184;100967.4;;;;-68
2023/07/25 12:42:57;;;;;;;;;;;;;;;23.63;45.76953;100980.8;;;;-68
2023/07/25 12:47:57;;;;;;;;;;;;;;;23.5;45.37598;100984.3;;;;-68
2023/07/25 12:48:56;;;;;;;0.2;0;;;;;;;;;;;;;-68
2023/07/25 12:52:57;;;;;;;;;;;;;;;23.66;45.7373;100974.9;;;;-70
2023/07/25 12:57:58;;;;;;;;;;;;;;;24.04;44.94629;100974.5;;;;-69
2023/07/25 13:02:57;;;;;;;;;;;;;;;24.34;44.76953;100970.2;;;;-69
2023/07/25 13:07:59;;;;;;;;;;;;;;;24.76;43.89844;100973.6;;;;-67
2023/07/25 13:12:57;;;;;;;;;;;;;;;25.09;43.74512;100973.1;;;;-67
2023/07/25 13:17:57;;;;;;;;;;;;;;;25.21;43.52539;100976.5;;;;-69
2023/07/25 13:19:00;;;;;;;0.2;0;;;;;;;;;;;;;-68
2023/07/25 13:22:57;;;;;;;;;;;;;;;24.98;42.42871;100975.9;;;;-69
2023/07/25 13:27:58;;;;;;;;;;;;;;;24.97;43.67578;100974.3;;;;-69
2023/07/25 13:32:57;;;;;;;;;;;;;;;25.32;43.28125;100966.9;;;;-68
2023/07/25 13:38:00;;;;;;;;;;;;;;;25.61;43.26367;100974.2;;;;-69
2023/07/25 13:42:57;;;;;;;;;;;;;;;25.74;43.10254;100983.1;;;;-70
2023/07/25 13:47:57;;;;;;;;;;;;;;;25.68;43.45605;100976.6;;;;-70
2023/07/25 13:49:04;;;;;;;0.2;0;;;;;;;;;;;;;-69
2023/07/25 13:52:57;;;;;;;;;;;;;;;25.96;42.79883;100987;;;;-69
2023/07/25 13:57:57;;;;;;;;;;;;;;;26;41.63184;100983.1;;;;-69
2023/07/25 14:02:57;;;;;;;;;;;;;;;25.74;42.43066;100982.3;;;;-68
2023/07/25 14:07:57;;;;;;;;;;;;;;;25.45;42.82031;100990.7;;;;-68
2023/07/25 14:12:57;;;;;;;;;;;;;;;25.33;42.6582;101000.7;;;;-68
2023/07/25 14:17:57;;;;;;;;;;;;;;;25.29;42.59766;101003.7;;;;-67
2023/07/25 14:19:08;;;;;;;0.2;0;;;;;;;;;;;;;-69
2023/07/25 14:22:57;;;;;;;;;;;;;;;25.26;42.65137;100997.7;;;;-69
2023/07/25 14:27:57;;;;;;;;;;;;;;;25.47;43.00586;100998;;;;-68
2023/07/25 14:32:57;;;;;;;;;;;;;;;25.74;43.66895;101001;;;;-69
2023/07/25 14:37:57;;;;;;;;;;;;;;;25.75;44.04199;101008.7;;;;-69
2023/07/25 14:42:59;;;;;;;;;;;;;;;25.45;42.56445;101001.5;;;;-67
2023/07/25 14:47:58;;;;;;;;;;;;;;;25.59;43.28516;101008.9;;;;-68
2023/07/25 14:49:13;;;;;;;0.2;0;;;;;;;;;;;;;-70
2023/07/25 14:52:57;;;;;;;;;;;;;;;25.86;43.11328;101011.5;;;;-70
2023/07/25 14:57:57;;;;;;;;;;;;;;;25.92;43.13184;101015.5;;;;-67
2023/07/25 15:02:57;;;;;;;;;;;;;;;25.69;42.7168;101020.8;;;;-68
2023/07/25 15:07:57;;;;;;;;;;;;;;;25.17;42.68945;101028.9;;;;-69
2023/07/25 15:12:57;;;;;;;;;;;;;;;24.77;44.15332;101030.3;;;;-68
2023/07/25 15:17:57;;;;;;;;;;;;;;;24.42;44.2002;101034.5;;;;-70
2023/07/25 15:19:17;;;;;;;0.2;0;;;;;;;;;;;;;-68
2023/07/25 15:22:57;;;;;;;;;;;;;;;24.23;45.16211;101036.1;;;;-68
2023/07/25 15:27:57;;;;;;;;;;;;;;;24.16;45.24707;101030.9;;;;-68
2023/07/25 15:32:57;;;;;;;;;;;;;;;24.15;45.09473;101035;;;;-70
2023/07/25 15:37:57;;;;;;;;;;;;;;;24.27;44.98145;101026.2;;;;-68
2023/07/25 15:42:57;;;;;;;;;;;;;;;24.57;44.29492;101033.4;;;;-71
2023/07/25 15:47:58;;;;;;;;;;;;;;;24.86;44.56641;101038.4;;;;-68
2023/07/25 15:49:21;;;;;;;0.2;0;;;;;;;;;;;;;-68
2023/07/25 15:52:57;;;;;;;;;;;;;;;25.07;44.26367;101040.5;;;;-67
2023/07/25 15:57:57;;;;;;;;;;;;;;;24.87;43.90918;101045.8;;;;-69
2023/07/25 16:02:57;;;;;;;;;;;;;;;24.56;44.10938;101047.1;;;;-69
2023/07/25 16:07:57;;;;;;;;;;;;;;;24.55;44.09766;101056.1;;;;-66
2023/07/25 16:12:57;;;;;;;;;;;;;;;24.53;44.47656;101059;;;;-68
2023/07/25 16:17:57;;;;;;;;;;;;;;;24.54;44.71875;101048.3;;;;-67
2023/07/25 16:19:27;;;;;;;0.2;0.1;;;;;;;;;;;;;-68
2023/07/25 16:22:57;;;;;;;;;;;;;;;24.55;44.7207;101042.2;;;;-69
2023/07/25 16:27:57;;;;;;;;;;;;;;;24.53;44.70703;101045.8;;;;-67
2023/07/25 16:32:57;;;;;;;;;;;;;;;24.48;44.96875;101042.6;;;;-69
2023/07/25 16:37:57;;;;;;;;;;;;;;;24.41;44.8457;101045.9;;;;-70
2023/07/25 16:42:57;;;;;;;;;;;;;;;24.23;44.44629;101056.4;;;;-70
2023/07/25 16:47:56;;;;;;;;;;;;;;;23.83;44.94922;101056.8;;;;-69
2023/07/25 16:49:30;;;;;;;0.2;0;;;;;;;;;;;;;-72
2023/07/25 16:52:58;;;;;;;;;;;;;;;23.54;45.77148;101055.7;;;;-72
2023/07/25 16:57:59;;;;;;;;;;;;;;;23.28;46.2627;101053.1;;;;-70
2023/07/25 17:02:57;;;;;;;;;;;;;;;23.16;46.89453;101058.6;;;;-71
2023/07/25 17:07:57;;;;;;;;;;;;;;;23.07;46.88477;101060.4;;;;-70
2023/07/25 17:12:57;;;;;;;;;;;;;;;22.94;46.7793;101063.6;;;;-70
2023/07/25 17:17:57;;;;;;;;;;;;;;;22.77;47.03711;101058.8;;;;-71
2023/07/25 17:19:34;;;;;;;0.2;0;;;;;;;;;;;;;-71
2023/07/25 17:22:57;;;;;;;;;;;;;;;22.61;47.34277;101056.2;;;;-71
2023/07/25 17:27:57;;;;;;;;;;;;;;;22.47;47.32715;101064.3;;;;-71
2023/07/25 17:32:57;;;;;;;;;;;;;;;22.25;46.91406;101078.7;;;;-71
2023/07/25 17:37:57;;;;;;;;;;;;;;;21.92;47.50977;101089.3;;;;-70
2023/07/25 17:42:56;;;;;;;;;;;;;;;21.51;48.55469;101110.7;;;;-71
2023/07/25 17:47:57;;;;;;;;;;;;;;;21.13;49.85156;101105.6;;;;-72
2023/07/25 17:49:37;;;;;;;0.2;0;;;;;;;;;;;;;-72
2023/07/25 17:52:57;;;;;;;;;;;;;;;20.85;50.07129;101104.1;;;;-73
2023/07/25 17:58:00;;;;;;;;;;;;;;;20.62;50.03516;101104.9;;;;-70
2023/07/25 18:02:57;;;;;;;;;;;;;;;20.36;50.56543;101105.9;;;;-73
2023/07/25 18:07:57;;;;;;;;;;;;;;;20.17;49.96191;101108.8;;;;-71
2023/07/25 18:12:57;;;;;;;;;;;;;;;19.95;50.08496;101107.4;;;;-71
2023/07/25 18:17:57;;;;;;;;;;;;;;;19.76;50.23535;101105.8;;;;-73
2023/07/25 18:19:41;;;;;;;0.2;0;;;;;;;;;;;;;-72
2023/07/25 18:22:57;;;;;;;;;;;;;;;19.61;50.38867;101109.3;;;;-71
2023/07/25 18:27:57;;;;;;;;;;;;;;;19.47;50.7832;101112.5;;;;-71
2023/07/25 18:32:57;;;;;;;;;;;;;;;19.3;50.91211;101107;;;;-71
2023/07/25 18:37:57;;;;;;;;;;;;;;;19.14;51.33789;101110.8;;;;-71
2023/07/25 18:42:57;;;;;;;;;;;;;;;19.02;51.96094;101111.3;;;;-71
2023/07/25 18:47:57;;;;;;;;;;;;;;;18.89;51.39941;101108.4;;;;-70
2023/07/25 18:49:44;;;;;;;0.2;0;;;;;;;;;;;;;-71
2023/07/25 18:52:57;;;;;;;;;;;;;;;18.8;51.80957;101110.3;;;;-71
2023/07/25 18:57:57;;;;;;;;;;;;;;;18.7;52.26367;101114.3;;;;-71
2023/07/25 19:02:57;;;;;;;;;;;;;;;18.6;52.37793;101115.4;;;;-72
2023/07/25 19:07:56;;;;;;;;;;;;;;;18.48;52.6582;101118;;;;-71
2023/07/25 19:12:57;;;;;;;;;;;;;;;18.37;52.80469;101118.4;;;;-69
2023/07/25 19:18:00;;;;;;;;;;;;;;;18.26;53.0293;101124.6;;;;-68
2023/07/25 19:19:48;;;;;;;0.4;0.2;;;;;;;;;;;;;-69
2023/07/25 19:22:57;;;;;;;;;;;;;;;18.17;53.21094;101119.3;;;;-68
2023/07/25 19:27:57;;;;;;;;;;;;;;;18.04;53.62793;101120.2;;;;-69
2023/07/25 19:32:57;;;;;;;;;;;;;;;17.95;54.46777;101117.5;;;;-69
2023/07/25 19:37:57;;;;;;;;;;;;;;;17.87;54.10645;101118;;;;-70
2023/07/25 19:42:57;;;;;;;;;;;;;;;17.75;54.64746;101125.1;;;;-70
2023/07/25 19:47:57;;;;;;;;;;;;;;;17.65;54.4873;101136.8;;;;-70
2023/07/25 19:49:50;;;;;;;0.2;0.1;;;;;;;;;;;;;-69
2023/07/25 19:52:59;;;;;;;;;;;;;;;17.51;55.30762;101147.9;;;;-69
2023/07/25 19:57:56;;;;;;;;;;;;;;;17.44;55.0957;101154.4;;;;-68
2023/07/25 20:02:57;;;;;;;;;;;;;;;17.32;55.43066;101159.3;;;;-69
2023/07/25 20:07:57;;;;;;;;;;;;;;;17.21;55.59961;101169.8;;;;-69
2023/07/25 20:12:57;;;;;;;;;;;;;;;17.11;55.56348;101168.5;;;;-71
2023/07/25 20:17:57;;;;;;;;;;;;;;;16.98;55.41113;101167.1;;;;-70
2023/07/25 20:19:53;;;;;;;0.2;0;;;;;;;;;;;;;-69
2023/07/25 20:22:58;;;;;;;;;;;;;;;16.82;55.33594;101171.6;;;;-68
2023/07/25 20:27:57;;;;;;;;;;;;;;;16.69;55.51074;101173.4;;;;-70
2023/07/25 20:32:57;;;;;;;;;;;;;;;16.57;55.57617;101174;;;;-68
2023/07/25 20:37:57;;;;;;;;;;;;;;;16.46;55.50488;101178.2;;;;-69
2023/07/25 20:42:57;;;;;;;;;;;;;;;16.34;55.65918;101176.2;;;;-69
2023/07/25 20:47:57;;;;;;;;;;;;;;;16.23;55.63379;101176.2;;;;-69
2023/07/25 20:49:56;;;;;;;0.2;0;;;;;;;;;;;;;-69
2023/07/25 20:52:57;;;;;;;;;;;;;;;16.14;55.76953;101176.9;;;;-69
2023/07/25 20:57:57;;;;;;;;;;;;;;;16.04;55.55371;101179.1;;;;-67
2023/07/25 21:02:57;;;;;;;;;;;;;;;15.92;55.65137;101179.2;;;;-69
2023/07/25 21:07:57;;;;;;;;;;;;;;;15.82;55.7168;101179.7;;;;-68
2023/07/25 21:12:57;;;;;;;;;;;;;;;15.72;55.99805;101177.1;;;;-72
2023/07/25 21:17:57;;;;;;;;;;;;;;;15.61;55.87207;101175.8;;;;-72
2023/07/25 21:19:58;;;;;;;1;0.7;;;;;;;;;;;;;-69
2023/07/25 21:22:57;;;;;;;;;;;;;;;15.52;55.9502;101176.9;;;;-70
2023/07/25 21:27:57;;;;;;;;;;;;;;;15.45;55.83984;101176.5;;;;-70
2023/07/25 21:32:57;;;;;;;;;;;;;;;15.35;55.95117;101181.5;;;;-70
2023/07/25 21:37:56;;;;;;;;;;;;;;;15.28;56.21387;101185;;;;-71
2023/07/25 21:42:57;;;;;;;;;;;;;;;15.18;56.21191;101180.5;;;;-74
2023/07/25 21:47:57;;;;;;;;;;;;;;;15.17;56.01953;101190.3;;;;-70
2023/07/25 21:50:01;;;;;;;0.2;0;;;;;;;;;;;;;-71
2023/07/25 21:52:57;;;;;;;;;;;;;;;15.07;56.36719;101187.6;;;;-71
2023/07/25 21:57:56;;;;;;;;;;;;;;;15;56.48047;101192.5;;;;-70
2023/07/25 22:02:57;;;;;;;;;;;;;;;15;56.23242;101192.7;;;;-70
2023/07/25 22:07:56;;;;;;;;;;;;;;;14.96;56.29688;101191.9;;;;-71
2023/07/25 22:12:56;;;;;;;;;;;;;;;14.88;56.52148;101186;;;;-72
2023/07/25 22:18:00;;;;;;;;;;;;;;;14.84;56.55078;101187.1;;;;-71
2023/07/25 22:20:03;;;;;;;0.2;0.1;;;;;;;;;;;;;-71
2023/07/25 22:22:57;;;;;;;;;;;;;;;14.82;56.56934;101188.5;;;;-72
2023/07/25 22:28:00;;;;;;;;;;;;;;;14.78;56.58887;101191.3;;;;-70
2023/07/25 22:32:57;;;;;;;;;;;;;;;14.77;56.51953;101190.6;;;;-71
2023/07/25 22:38:06;;;;;;;;;;;;;;;14.71;56.40918;101188.6;;;;-72
2023/07/25 22:42:57;;;;;;;;;;;;;;;14.66;56.63965;101183.3;;;;-70
2023/07/25 22:47:57;;;;;;;;;;;;;;;14.61;56.76953;101187.7;;;;-70
2023/07/25 22:50:05;;;;;;;0.2;0;;;;;;;;;;;;;-70
2023/07/25 22:52:57;;;;;;;;;;;;;;;14.57;56.77441;101187.9;;;;-71
2023/07/25 22:57:57;;;;;;;;;;;;;;;14.5;56.73242;101188.7;;;;-71
2023/07/25 23:02:57;;;;;;;;;;;;;;;14.43;56.94727;101185.9;;;;-69
2023/07/25 23:07:57;;;;;;;;;;;;;;;14.4;56.97754;101185.3;;;;-70
2023/07/25 23:12:56;;;;;;;;;;;;;;;14.36;56.82715;101182.9;;;;-71
2023/07/25 23:17:57;;;;;;;;;;;;;;;14.28;56.93848;101180.6;;;;-69
2023/07/25 23:20:07;;;;;;;0.2;0.1;;;;;;;;;;;;;-68
2023/07/25 23:22:57;;;;;;;;;;;;;;;14.26;56.9043;101179.5;;;;-69
2023/07/25 23:27:56;;;;;;;;;;;;;;;14.19;57.15332;101176.4;;;;-67
2023/07/25 23:32:57;;;;;;;;;;;;;;;14.13;57.22363;101170.9;;;;-67
2023/07/25 23:37:57;;;;;;;;;;;;;;;14.07;57.36133;101174.9;;;;-69
2023/07/25 23:42:56;;;;;;;;;;;;;;;14.02;57.29883;101178.9;;;;-68
2023/07/25 23:47:57;;;;;;;;;;;;;;;13.96;57.39258;101181;;;;-68
2023/07/25 23:50:09;;;;;;;0.2;0;;;;;;;;;;;;;-67
2023/07/25 23:52:57;;;;;;;;;;;;;;;13.96;57.3125;101183.4;;;;-69
2023/07/25 23:57:57;;;;;;;;;;;;;;;13.98;57.55273;101179.3;;;;-68
